sensor_id;sensor_type;location;lat;lon;timestamp;P1;durP1;ratioP1;P2;durP2;ratioP2
13238;SDS011;6686;51.292;4.166;2023-06-10T00:01:38;8.57;;;7.87;;
13238;SDS011;6686;51.292;4.166;2023-06-10T00:04:24;9.63;;;7.97;;
13238;SDS011;6686;51.292;4.166;2023-06-10T00:07:10;8.60;;;7.80;;
13238;SDS011;6686;51.292;4.166;2023-06-10T00:09:56;9.37;;;7.30;;
13238;SDS011;6686;51.292;4.166;2023-06-10T00:12:42;8.67;;;7.87;;
13238;SDS011;6686;51.292;4.166;2023-06-10T00:15:31;10.00;;;8.00;;
13238;SDS011;6686;51.292;4.166;2023-06-10T00:18:20;11.40;;;8.53;;
13238;SDS011;6686;51.292;4.166;2023-06-10T00:21:06;9.40;;;7.47;;
13238;SDS011;6686;51.292;4.166;2023-06-10T00:23:52;9.40;;;7.90;;
13238;SDS011;6686;51.292;4.166;2023-06-10T00:26:38;10.37;;;7.50;;
13238;SDS011;6686;51.292;4.166;2023-06-10T00:29:23;8.03;;;7.33;;
13238;SDS011;6686;51.292;4.166;2023-06-10T00:32:10;9.37;;;7.53;;
13238;SDS011;6686;51.292;4.166;2023-06-10T00:34:56;10.43;;;7.67;;
13238;SDS011;6686;51.292;4.166;2023-06-10T00:37:42;9.80;;;7.87;;
13238;SDS011;6686;51.292;4.166;2023-06-10T00:40:28;9.73;;;8.30;;
13238;SDS011;6686;51.292;4.166;2023-06-10T00:43:14;8.77;;;7.87;;
13238;SDS011;6686;51.292;4.166;2023-06-10T00:45:59;8.13;;;7.33;;
13238;SDS011;6686;51.292;4.166;2023-06-10T00:48:45;9.43;;;8.60;;
13238;SDS011;6686;51.292;4.166;2023-06-10T00:51:31;9.33;;;8.17;;
13238;SDS011;6686;51.292;4.166;2023-06-10T00:54:17;9.23;;;8.43;;
13238;SDS011;6686;51.292;4.166;2023-06-10T00:57:03;9.63;;;8.23;;
13238;SDS011;6686;51.292;4.166;2023-06-10T00:59:49;9.13;;;8.13;;
13238;SDS011;6686;51.292;4.166;2023-06-10T01:02:36;12.23;;;8.20;;
13238;SDS011;6686;51.292;4.166;2023-06-10T01:05:23;9.07;;;8.27;;
13238;SDS011;6686;51.292;4.166;2023-06-10T01:11:03;9.40;;;8.50;;
13238;SDS011;6686;51.292;4.166;2023-06-10T01:13:49;10.37;;;7.73;;
13238;SDS011;6686;51.292;4.166;2023-06-10T01:16:34;12.30;;;8.40;;
13238;SDS011;6686;51.292;4.166;2023-06-10T01:19:20;9.53;;;8.53;;
13238;SDS011;6686;51.292;4.166;2023-06-10T01:22:06;9.73;;;8.17;;
13238;SDS011;6686;51.292;4.166;2023-06-10T01:24:52;10.33;;;8.40;;
13238;SDS011;6686;51.292;4.166;2023-06-10T01:27:38;10.47;;;7.77;;
13238;SDS011;6686;51.292;4.166;2023-06-10T01:30:27;9.60;;;8.60;;
13238;SDS011;6686;51.292;4.166;2023-06-10T01:33:11;10.73;;;8.10;;
13238;SDS011;6686;51.292;4.166;2023-06-10T01:35:57;9.60;;;8.03;;
13238;SDS011;6686;51.292;4.166;2023-06-10T01:38:43;9.70;;;8.37;;
13238;SDS011;6686;51.292;4.166;2023-06-10T01:41:28;9.07;;;8.13;;
13238;SDS011;6686;51.292;4.166;2023-06-10T01:44:18;8.87;;;8.00;;
13238;SDS011;6686;51.292;4.166;2023-06-10T01:47:08;9.90;;;8.17;;
13238;SDS011;6686;51.292;4.166;2023-06-10T01:49:54;9.40;;;7.83;;
13238;SDS011;6686;51.292;4.166;2023-06-10T01:52:40;10.97;;;9.80;;
13238;SDS011;6686;51.292;4.166;2023-06-10T01:55:27;10.00;;;8.33;;
13238;SDS011;6686;51.292;4.166;2023-06-10T01:58:13;9.97;;;8.43;;
13238;SDS011;6686;51.292;4.166;2023-06-10T02:00:59;9.63;;;8.37;;
13238;SDS011;6686;51.292;4.166;2023-06-10T02:03:44;9.43;;;8.57;;
13238;SDS011;6686;51.292;4.166;2023-06-10T02:06:31;9.07;;;8.27;;
13238;SDS011;6686;51.292;4.166;2023-06-10T02:09:17;11.60;;;8.53;;
13238;SDS011;6686;51.292;4.166;2023-06-10T02:12:03;8.60;;;7.80;;
13238;SDS011;6686;51.292;4.166;2023-06-10T02:14:49;9.10;;;8.20;;
13238;SDS011;6686;51.292;4.166;2023-06-10T02:20:45;10.80;;;8.77;;
13238;SDS011;6686;51.292;4.166;2023-06-10T02:23:31;9.67;;;8.67;;
13238;SDS011;6686;51.292;4.166;2023-06-10T02:26:17;16.13;;;8.93;;
13238;SDS011;6686;51.292;4.166;2023-06-10T02:29:02;10.00;;;9.00;;
13238;SDS011;6686;51.292;4.166;2023-06-10T02:31:49;9.77;;;8.77;;
13238;SDS011;6686;51.292;4.166;2023-06-10T02:34:34;8.63;;;7.83;;
13238;SDS011;6686;51.292;4.166;2023-06-10T02:37:20;9.67;;;8.67;;
13238;SDS011;6686;51.292;4.166;2023-06-10T02:40:07;10.48;;;9.50;;
13238;SDS011;6686;51.292;4.166;2023-06-10T02:42:52;10.60;;;8.97;;
13238;SDS011;6686;51.292;4.166;2023-06-10T02:45:38;9.67;;;8.60;;
13238;SDS011;6686;51.292;4.166;2023-06-10T02:48:29;9.93;;;9.00;;
13238;SDS011;6686;51.292;4.166;2023-06-10T02:51:15;11.40;;;9.27;;
13238;SDS011;6686;51.292;4.166;2023-06-10T02:54:01;10.47;;;9.57;;
13238;SDS011;6686;51.292;4.166;2023-06-10T02:56:46;10.17;;;9.17;;
13238;SDS011;6686;51.292;4.166;2023-06-10T02:59:33;12.23;;;9.30;;
13238;SDS011;6686;51.292;4.166;2023-06-10T03:02:18;11.43;;;9.83;;
13238;SDS011;6686;51.292;4.166;2023-06-10T03:05:04;10.23;;;9.33;;
13238;SDS011;6686;51.292;4.166;2023-06-10T03:07:50;11.20;;;10.10;;
13238;SDS011;6686;51.292;4.166;2023-06-10T03:10:36;10.77;;;9.67;;
13238;SDS011;6686;51.292;4.166;2023-06-10T03:13:23;11.90;;;10.70;;
13238;SDS011;6686;51.292;4.166;2023-06-10T03:16:08;10.47;;;9.37;;
13238;SDS011;6686;51.292;4.166;2023-06-10T03:18:54;12.43;;;10.03;;
13238;SDS011;6686;51.292;4.166;2023-06-10T03:21:43;12.02;;;10.95;;
13238;SDS011;6686;51.292;4.166;2023-06-10T03:24:27;10.47;;;9.53;;
13238;SDS011;6686;51.292;4.166;2023-06-10T03:27:16;11.53;;;10.27;;
13238;SDS011;6686;51.292;4.166;2023-06-10T03:30:02;11.13;;;10.13;;
13238;SDS011;6686;51.292;4.166;2023-06-10T03:32:48;11.07;;;10.03;;
13238;SDS011;6686;51.292;4.166;2023-06-10T03:35:36;11.27;;;10.25;;
13238;SDS011;6686;51.292;4.166;2023-06-10T03:38:25;11.70;;;10.60;;
13238;SDS011;6686;51.292;4.166;2023-06-10T03:41:08;14.20;;;10.07;;
13238;SDS011;6686;51.292;4.166;2023-06-10T03:43:55;11.50;;;10.40;;
13238;SDS011;6686;51.292;4.166;2023-06-10T03:46:41;10.50;;;9.57;;
13238;SDS011;6686;51.292;4.166;2023-06-10T03:49:27;11.07;;;9.97;;
13238;SDS011;6686;51.292;4.166;2023-06-10T03:52:13;12.20;;;10.33;;
13238;SDS011;6686;51.292;4.166;2023-06-10T03:54:59;11.00;;;10.00;;
13238;SDS011;6686;51.292;4.166;2023-06-10T03:57:45;12.03;;;10.83;;
13238;SDS011;6686;51.292;4.166;2023-06-10T04:00:31;10.97;;;9.97;;
13238;SDS011;6686;51.292;4.166;2023-06-10T04:03:17;11.40;;;10.40;;
13238;SDS011;6686;51.292;4.166;2023-06-10T04:06:03;12.40;;;9.97;;
13238;SDS011;6686;51.292;4.166;2023-06-10T04:08:49;13.37;;;10.73;;
13238;SDS011;6686;51.292;4.166;2023-06-10T04:11:35;12.88;;;11.52;;
13238;SDS011;6686;51.292;4.166;2023-06-10T04:14:21;14.97;;;11.27;;
13238;SDS011;6686;51.292;4.166;2023-06-10T04:17:08;12.33;;;11.03;;
13238;SDS011;6686;51.292;4.166;2023-06-10T04:19:54;12.07;;;10.97;;
13238;SDS011;6686;51.292;4.166;2023-06-10T04:22:40;12.77;;;10.10;;
13238;SDS011;6686;51.292;4.166;2023-06-10T04:25:27;13.03;;;10.60;;
13238;SDS011;6686;51.292;4.166;2023-06-10T04:28:12;11.47;;;10.37;;
13238;SDS011;6686;51.292;4.166;2023-06-10T04:30:59;13.30;;;12.00;;
13238;SDS011;6686;51.292;4.166;2023-06-10T04:33:44;14.73;;;11.23;;
13238;SDS011;6686;51.292;4.166;2023-06-10T04:36:30;11.70;;;10.53;;
13238;SDS011;6686;51.292;4.166;2023-06-10T04:39:16;12.77;;;11.47;;
13238;SDS011;6686;51.292;4.166;2023-06-10T04:42:02;13.10;;;11.00;;
13238;SDS011;6686;51.292;4.166;2023-06-10T04:44:48;12.20;;;11.03;;
13238;SDS011;6686;51.292;4.166;2023-06-10T04:47:34;12.53;;;11.23;;
13238;SDS011;6686;51.292;4.166;2023-06-10T04:50:21;12.50;;;11.20;;
13238;SDS011;6686;51.292;4.166;2023-06-10T04:53:08;12.83;;;11.53;;
13238;SDS011;6686;51.292;4.166;2023-06-10T04:55:56;12.77;;;11.47;;
13238;SDS011;6686;51.292;4.166;2023-06-10T04:58:41;12.73;;;10.90;;
13238;SDS011;6686;51.292;4.166;2023-06-10T05:01:26;13.13;;;11.10;;
13238;SDS011;6686;51.292;4.166;2023-06-10T05:04:12;12.13;;;10.90;;
13238;SDS011;6686;51.292;4.166;2023-06-10T05:06:58;13.03;;;10.97;;
13238;SDS011;6686;51.292;4.166;2023-06-10T05:09:44;13.33;;;11.17;;
13238;SDS011;6686;51.292;4.166;2023-06-10T05:12:31;12.60;;;10.83;;
13238;SDS011;6686;51.292;4.166;2023-06-10T05:15:18;12.70;;;11.40;;
13238;SDS011;6686;51.292;4.166;2023-06-10T05:18:04;11.83;;;10.63;;
13238;SDS011;6686;51.292;4.166;2023-06-10T05:20:49;12.27;;;10.98;;
13238;SDS011;6686;51.292;4.166;2023-06-10T05:23:35;11.93;;;10.60;;
13238;SDS011;6686;51.292;4.166;2023-06-10T05:26:21;12.23;;;10.73;;
13238;SDS011;6686;51.292;4.166;2023-06-10T05:29:07;11.77;;;10.47;;
13238;SDS011;6686;51.292;4.166;2023-06-10T05:31:53;13.17;;;10.90;;
13238;SDS011;6686;51.292;4.166;2023-06-10T05:34:39;11.77;;;10.60;;
13238;SDS011;6686;51.292;4.166;2023-06-10T05:37:26;12.17;;;11.07;;
13238;SDS011;6686;51.292;4.166;2023-06-10T05:40:12;11.43;;;10.43;;
13238;SDS011;6686;51.292;4.166;2023-06-10T05:42:59;13.77;;;10.10;;
13238;SDS011;6686;51.292;4.166;2023-06-10T05:45:44;10.48;;;9.48;;
13238;SDS011;6686;51.292;4.166;2023-06-10T05:48:30;11.38;;;9.65;;
13238;SDS011;6686;51.292;4.166;2023-06-10T05:51:17;10.32;;;9.27;;
13238;SDS011;6686;51.292;4.166;2023-06-10T05:54:02;10.60;;;9.50;;
13238;SDS011;6686;51.292;4.166;2023-06-10T05:56:48;11.12;;;9.77;;
13238;SDS011;6686;51.292;4.166;2023-06-10T05:59:36;10.40;;;8.80;;
13238;SDS011;6686;51.292;4.166;2023-06-10T06:02:22;10.65;;;9.65;;
13238;SDS011;6686;51.292;4.166;2023-06-10T06:05:08;10.18;;;9.27;;
13238;SDS011;6686;51.292;4.166;2023-06-10T06:07:54;10.98;;;9.88;;
13238;SDS011;6686;51.292;4.166;2023-06-10T06:10:40;13.38;;;9.25;;
13238;SDS011;6686;51.292;4.166;2023-06-10T06:13:26;9.98;;;8.98;;
13238;SDS011;6686;51.292;4.166;2023-06-10T06:16:12;9.73;;;8.75;;
13238;SDS011;6686;51.292;4.166;2023-06-10T06:18:59;10.27;;;9.20;;
13238;SDS011;6686;51.292;4.166;2023-06-10T06:21:46;9.98;;;9.07;;
13238;SDS011;6686;51.292;4.166;2023-06-10T06:24:33;11.57;;;9.30;;
13238;SDS011;6686;51.292;4.166;2023-06-10T06:27:19;9.65;;;8.65;;
13238;SDS011;6686;51.292;4.166;2023-06-10T06:30:05;12.35;;;9.43;;
13238;SDS011;6686;51.292;4.166;2023-06-10T06:32:52;9.45;;;7.32;;
13238;SDS011;6686;51.292;4.166;2023-06-10T06:35:37;12.95;;;9.30;;
13238;SDS011;6686;51.292;4.166;2023-06-10T06:38:25;10.35;;;9.27;;
13238;SDS011;6686;51.292;4.166;2023-06-10T06:41:11;9.48;;;8.55;;
13238;SDS011;6686;51.292;4.166;2023-06-10T06:43:57;9.50;;;8.52;;
13238;SDS011;6686;51.292;4.166;2023-06-10T06:46:45;10.40;;;9.43;;
13238;SDS011;6686;51.292;4.166;2023-06-10T06:49:31;12.57;;;9.23;;
13238;SDS011;6686;51.292;4.166;2023-06-10T06:52:17;10.43;;;8.63;;
13238;SDS011;6686;51.292;4.166;2023-06-10T06:55:03;9.70;;;8.73;;
13238;SDS011;6686;51.292;4.166;2023-06-10T06:57:49;11.27;;;9.30;;
13238;SDS011;6686;51.292;4.166;2023-06-10T07:00:36;10.45;;;9.45;;
13238;SDS011;6686;51.292;4.166;2023-06-10T07:03:22;9.88;;;8.88;;
13238;SDS011;6686;51.292;4.166;2023-06-10T07:06:12;10.35;;;8.73;;
13238;SDS011;6686;51.292;4.166;2023-06-10T07:09:00;9.77;;;8.73;;
13238;SDS011;6686;51.292;4.166;2023-06-10T07:11:46;9.98;;;9.00;;
13238;SDS011;6686;51.292;4.166;2023-06-10T07:14:32;10.65;;;8.90;;
13238;SDS011;6686;51.292;4.166;2023-06-10T07:17:19;10.90;;;8.43;;
13238;SDS011;6686;51.292;4.166;2023-06-10T07:20:05;9.75;;;8.63;;
13238;SDS011;6686;51.292;4.166;2023-06-10T07:22:51;9.50;;;8.60;;
13238;SDS011;6686;51.292;4.166;2023-06-10T07:25:37;8.77;;;7.75;;
13238;SDS011;6686;51.292;4.166;2023-06-10T07:28:24;9.05;;;8.18;;
13238;SDS011;6686;51.292;4.166;2023-06-10T07:31:10;9.25;;;8.45;;
13238;SDS011;6686;51.292;4.166;2023-06-10T07:33:56;8.15;;;7.28;;
13238;SDS011;6686;51.292;4.166;2023-06-10T07:36:43;9.38;;;8.45;;
13238;SDS011;6686;51.292;4.166;2023-06-10T07:39:29;8.70;;;7.90;;
13238;SDS011;6686;51.292;4.166;2023-06-10T07:42:21;9.82;;;7.80;;
13238;SDS011;6686;51.292;4.166;2023-06-10T07:45:08;9.00;;;8.07;;
13238;SDS011;6686;51.292;4.166;2023-06-10T07:47:54;8.80;;;7.82;;
13238;SDS011;6686;51.292;4.166;2023-06-10T07:50:40;9.07;;;8.13;;
13238;SDS011;6686;51.292;4.166;2023-06-10T07:53:26;11.43;;;8.15;;
13238;SDS011;6686;51.292;4.166;2023-06-10T07:56:12;8.15;;;7.35;;
13238;SDS011;6686;51.292;4.166;2023-06-10T07:59:05;9.63;;;7.90;;
13238;SDS011;6686;51.292;4.166;2023-06-10T08:01:47;9.15;;;8.15;;
13238;SDS011;6686;51.292;4.166;2023-06-10T08:04:40;8.73;;;7.82;;
13238;SDS011;6686;51.292;4.166;2023-06-10T08:07:22;8.85;;;8.05;;
13238;SDS011;6686;51.292;4.166;2023-06-10T08:10:10;9.60;;;8.57;;
13238;SDS011;6686;51.292;4.166;2023-06-10T08:12:57;9.07;;;7.35;;
13238;SDS011;6686;51.292;4.166;2023-06-10T08:15:43;7.72;;;7.03;;
13238;SDS011;6686;51.292;4.166;2023-06-10T08:18:32;9.15;;;8.35;;
13238;SDS011;6686;51.292;4.166;2023-06-10T08:21:18;9.20;;;7.93;;
13238;SDS011;6686;51.292;4.166;2023-06-10T08:24:09;10.25;;;7.47;;
13238;SDS011;6686;51.292;4.166;2023-06-10T08:26:55;8.52;;;7.72;;
13238;SDS011;6686;51.292;4.166;2023-06-10T08:29:45;8.30;;;7.50;;
13238;SDS011;6686;51.292;4.166;2023-06-10T08:32:33;11.45;;;7.07;;
13238;SDS011;6686;51.292;4.166;2023-06-10T08:35:19;8.02;;;6.60;;
13238;SDS011;6686;51.292;4.166;2023-06-10T08:38:05;11.93;;;8.05;;
13238;SDS011;6686;51.292;4.166;2023-06-10T08:40:51;11.10;;;7.05;;
13238;SDS011;6686;51.292;4.166;2023-06-10T08:43:53;12.23;;;7.75;;
13238;SDS011;6686;51.292;4.166;2023-06-10T08:46:23;12.27;;;8.30;;
13238;SDS011;6686;51.292;4.166;2023-06-10T08:49:09;15.07;;;8.20;;
13238;SDS011;6686;51.292;4.166;2023-06-10T08:51:57;8.52;;;7.70;;
13238;SDS011;6686;51.292;4.166;2023-06-10T08:54:42;7.93;;;7.22;;
13238;SDS011;6686;51.292;4.166;2023-06-10T08:57:27;8.05;;;7.25;;
13238;SDS011;6686;51.292;4.166;2023-06-10T09:00:13;7.60;;;6.93;;
13238;SDS011;6686;51.292;4.166;2023-06-10T09:03:03;8.70;;;7.53;;
13238;SDS011;6686;51.292;4.166;2023-06-10T09:05:50;10.05;;;7.60;;
13238;SDS011;6686;51.292;4.166;2023-06-10T09:08:39;9.32;;;7.30;;
13238;SDS011;6686;51.292;4.166;2023-06-10T09:11:26;8.13;;;6.75;;
13238;SDS011;6686;51.292;4.166;2023-06-10T09:14:12;10.00;;;7.70;;
13238;SDS011;6686;51.292;4.166;2023-06-10T09:16:58;9.90;;;6.95;;
13238;SDS011;6686;51.292;4.166;2023-06-10T09:19:46;8.07;;;7.37;;
13238;SDS011;6686;51.292;4.166;2023-06-10T09:22:32;8.35;;;7.25;;
13238;SDS011;6686;51.292;4.166;2023-06-10T09:25:18;9.80;;;7.05;;
13238;SDS011;6686;51.292;4.166;2023-06-10T09:28:04;7.95;;;7.15;;
13238;SDS011;6686;51.292;4.166;2023-06-10T09:30:49;9.98;;;7.22;;
13238;SDS011;6686;51.292;4.166;2023-06-10T09:33:39;8.07;;;7.28;;
13238;SDS011;6686;51.292;4.166;2023-06-10T09:36:24;6.85;;;6.05;;
13238;SDS011;6686;51.292;4.166;2023-06-10T09:39:14;7.20;;;6.50;;
13238;SDS011;6686;51.292;4.166;2023-06-10T09:42:02;7.18;;;6.25;;
13238;SDS011;6686;51.292;4.166;2023-06-10T09:44:49;7.68;;;6.87;;
13238;SDS011;6686;51.292;4.166;2023-06-10T09:47:34;8.82;;;6.18;;
13238;SDS011;6686;51.292;4.166;2023-06-10T09:50:26;8.75;;;6.40;;
13238;SDS011;6686;51.292;4.166;2023-06-10T09:53:14;8.05;;;6.10;;
13238;SDS011;6686;51.292;4.166;2023-06-10T09:55:59;6.93;;;6.25;;
13238;SDS011;6686;51.292;4.166;2023-06-10T09:58:45;12.10;;;7.00;;
13238;SDS011;6686;51.292;4.166;2023-06-10T10:01:32;8.95;;;6.10;;
13238;SDS011;6686;51.292;4.166;2023-06-10T10:04:22;7.03;;;6.32;;
13238;SDS011;6686;51.292;4.166;2023-06-10T10:07:04;7.00;;;6.30;;
13238;SDS011;6686;51.292;4.166;2023-06-10T10:09:50;7.43;;;6.62;;
13238;SDS011;6686;51.292;4.166;2023-06-10T10:12:40;7.60;;;6.57;;
13238;SDS011;6686;51.292;4.166;2023-06-10T10:15:28;7.10;;;6.40;;
13238;SDS011;6686;51.292;4.166;2023-06-10T10:18:14;9.93;;;6.85;;
13238;SDS011;6686;51.292;4.166;2023-06-10T10:21:03;7.10;;;6.50;;
13238;SDS011;6686;51.292;4.166;2023-06-10T10:23:52;6.90;;;6.28;;
13238;SDS011;6686;51.292;4.166;2023-06-10T10:27:02;7.22;;;6.07;;
13238;SDS011;6686;51.292;4.166;2023-06-10T10:29:51;7.20;;;6.50;;
13238;SDS011;6686;51.292;4.166;2023-06-10T10:32:45;7.20;;;6.50;;
13238;SDS011;6686;51.292;4.166;2023-06-10T10:35:29;8.02;;;6.28;;
13238;SDS011;6686;51.292;4.166;2023-06-10T10:38:22;7.70;;;6.30;;
13238;SDS011;6686;51.292;4.166;2023-06-10T10:41:04;7.75;;;6.43;;
13238;SDS011;6686;51.292;4.166;2023-06-10T10:43:53;7.97;;;6.43;;
13238;SDS011;6686;51.292;4.166;2023-06-10T10:46:49;7.35;;;6.65;;
13238;SDS011;6686;51.292;4.166;2023-06-10T10:49:43;6.93;;;6.32;;
13238;SDS011;6686;51.292;4.166;2023-06-10T10:52:23;6.72;;;6.12;;
13238;SDS011;6686;51.292;4.166;2023-06-10T10:55:12;9.13;;;6.80;;
13238;SDS011;6686;51.292;4.166;2023-06-10T10:57:56;9.52;;;7.07;;
13238;SDS011;6686;51.292;4.166;2023-06-10T11:00:44;7.37;;;6.18;;
13238;SDS011;6686;51.292;4.166;2023-06-10T11:03:31;7.57;;;6.80;;
13238;SDS011;6686;51.292;4.166;2023-06-10T11:06:17;8.35;;;6.70;;
13238;SDS011;6686;51.292;4.166;2023-06-10T11:09:24;7.25;;;6.47;;
13238;SDS011;6686;51.292;4.166;2023-06-10T11:12:07;7.05;;;6.35;;
13238;SDS011;6686;51.292;4.166;2023-06-10T11:14:54;9.23;;;6.37;;
13238;SDS011;6686;51.292;4.166;2023-06-10T11:21:02;6.82;;;6.22;;
13238;SDS011;6686;51.292;4.166;2023-06-10T11:23:48;7.18;;;6.45;;
13238;SDS011;6686;51.292;4.166;2023-06-10T11:26:34;7.40;;;6.70;;
13238;SDS011;6686;51.292;4.166;2023-06-10T11:29:23;7.35;;;6.43;;
13238;SDS011;6686;51.292;4.166;2023-06-10T11:32:09;7.85;;;6.28;;
13238;SDS011;6686;51.292;4.166;2023-06-10T11:34:55;7.47;;;6.40;;
13238;SDS011;6686;51.292;4.166;2023-06-10T11:37:45;6.55;;;5.78;;
13238;SDS011;6686;51.292;4.166;2023-06-10T11:40:30;7.30;;;6.57;;
13238;SDS011;6686;51.292;4.166;2023-06-10T11:43:20;7.15;;;6.32;;
13238;SDS011;6686;51.292;4.166;2023-06-10T11:46:02;10.10;;;6.87;;
13238;SDS011;6686;51.292;4.166;2023-06-10T11:48:52;11.95;;;6.80;;
13238;SDS011;6686;51.292;4.166;2023-06-10T11:51:38;7.30;;;6.70;;
13238;SDS011;6686;51.292;4.166;2023-06-10T11:54:23;6.78;;;6.10;;
13238;SDS011;6686;51.292;4.166;2023-06-10T11:57:09;7.32;;;6.60;;
13238;SDS011;6686;51.292;4.166;2023-06-10T11:59:55;8.00;;;6.78;;
13238;SDS011;6686;51.292;4.166;2023-06-10T12:02:41;6.97;;;6.37;;
13238;SDS011;6686;51.292;4.166;2023-06-10T12:05:27;8.05;;;6.62;;
13238;SDS011;6686;51.292;4.166;2023-06-10T12:08:13;6.97;;;6.37;;
13238;SDS011;6686;51.292;4.166;2023-06-10T12:11:01;7.87;;;7.07;;
13238;SDS011;6686;51.292;4.166;2023-06-10T12:13:54;7.37;;;6.62;;
13238;SDS011;6686;51.292;4.166;2023-06-10T12:16:36;6.82;;;6.22;;
13238;SDS011;6686;51.292;4.166;2023-06-10T12:19:23;7.75;;;6.53;;
13238;SDS011;6686;51.292;4.166;2023-06-10T12:22:09;11.52;;;6.70;;
13238;SDS011;6686;51.292;4.166;2023-06-10T12:24:59;6.62;;;6.00;;
13238;SDS011;6686;51.292;4.166;2023-06-10T12:27:51;14.30;;;6.87;;
13238;SDS011;6686;51.292;4.166;2023-06-10T12:30:37;7.25;;;6.55;;
13238;SDS011;6686;51.292;4.166;2023-06-10T12:33:23;8.02;;;6.20;;
13238;SDS011;6686;51.292;4.166;2023-06-10T12:36:15;8.95;;;6.90;;
13238;SDS011;6686;51.292;4.166;2023-06-10T12:39:05;7.70;;;7.00;;
13238;SDS011;6686;51.292;4.166;2023-06-10T12:41:52;10.48;;;6.95;;
13238;SDS011;6686;51.292;4.166;2023-06-10T12:45:02;11.52;;;6.68;;
13238;SDS011;6686;51.292;4.166;2023-06-10T12:48:03;7.00;;;6.30;;
13238;SDS011;6686;51.292;4.166;2023-06-10T12:50:41;6.82;;;6.22;;
13238;SDS011;6686;51.292;4.166;2023-06-10T12:53:28;10.13;;;7.03;;
13238;SDS011;6686;51.292;4.166;2023-06-10T12:56:24;7.55;;;6.25;;
13238;SDS011;6686;51.292;4.166;2023-06-10T12:59:12;7.32;;;6.35;;
13238;SDS011;6686;51.292;4.166;2023-06-10T13:02:02;9.25;;;6.85;;
13238;SDS011;6686;51.292;4.166;2023-06-10T13:04:48;7.37;;;6.68;;
13238;SDS011;6686;51.292;4.166;2023-06-10T13:07:34;8.57;;;6.55;;
13238;SDS011;6686;51.292;4.166;2023-06-10T13:10:23;8.30;;;7.00;;
13238;SDS011;6686;51.292;4.166;2023-06-10T13:13:09;7.95;;;7.18;;
13238;SDS011;6686;51.292;4.166;2023-06-10T13:15:58;8.07;;;7.15;;
13238;SDS011;6686;51.292;4.166;2023-06-10T13:18:44;7.32;;;6.57;;
13238;SDS011;6686;51.292;4.166;2023-06-10T13:21:34;8.88;;;6.70;;
13238;SDS011;6686;51.292;4.166;2023-06-10T13:24:20;8.38;;;6.57;;
13238;SDS011;6686;51.292;4.166;2023-06-10T13:27:06;9.07;;;6.57;;
13238;SDS011;6686;51.292;4.166;2023-06-10T13:29:52;8.43;;;6.85;;
13238;SDS011;6686;51.292;4.166;2023-06-10T13:32:40;6.97;;;6.25;;
13238;SDS011;6686;51.292;4.166;2023-06-10T13:35:26;6.72;;;6.07;;
13238;SDS011;6686;51.292;4.166;2023-06-10T13:38:12;6.62;;;6.05;;
13238;SDS011;6686;51.292;4.166;2023-06-10T13:40:58;7.87;;;6.65;;
13238;SDS011;6686;51.292;4.166;2023-06-10T13:43:46;7.68;;;6.95;;
13238;SDS011;6686;51.292;4.166;2023-06-10T13:46:51;8.73;;;7.80;;
13238;SDS011;6686;51.292;4.166;2023-06-10T13:49:25;8.30;;;6.97;;
13238;SDS011;6686;51.292;4.166;2023-06-10T13:52:12;7.05;;;6.45;;
13238;SDS011;6686;51.292;4.166;2023-06-10T13:54:58;11.12;;;7.15;;
13238;SDS011;6686;51.292;4.166;2023-06-10T14:00:49;9.02;;;7.07;;
13238;SDS011;6686;51.292;4.166;2023-06-10T14:03:35;6.68;;;6.00;;
13238;SDS011;6686;51.292;4.166;2023-06-10T14:06:25;7.03;;;6.32;;
13238;SDS011;6686;51.292;4.166;2023-06-10T14:09:08;7.00;;;6.30;;
13238;SDS011;6686;51.292;4.166;2023-06-10T14:11:54;7.68;;;6.35;;
13238;SDS011;6686;51.292;4.166;2023-06-10T14:14:39;6.62;;;6.03;;
13238;SDS011;6686;51.292;4.166;2023-06-10T14:17:33;6.80;;;6.10;;
13238;SDS011;6686;51.292;4.166;2023-06-10T14:20:20;6.75;;;6.15;;
13238;SDS011;6686;51.292;4.166;2023-06-10T14:23:09;7.28;;;6.28;;
13238;SDS011;6686;51.292;4.166;2023-06-10T14:25:55;7.07;;;6.00;;
13238;SDS011;6686;51.292;4.166;2023-06-10T14:28:41;6.95;;;6.35;;
13238;SDS011;6686;51.292;4.166;2023-06-10T14:31:33;7.53;;;6.35;;
13238;SDS011;6686;51.292;4.166;2023-06-10T14:34:20;7.00;;;5.90;;
13238;SDS011;6686;51.292;4.166;2023-06-10T14:37:06;7.40;;;6.35;;
13238;SDS011;6686;51.292;4.166;2023-06-10T14:39:55;6.30;;;5.80;;
13238;SDS011;6686;51.292;4.166;2023-06-10T14:42:46;6.68;;;5.97;;
13238;SDS011;6686;51.292;4.166;2023-06-10T14:45:32;7.47;;;6.68;;
13238;SDS011;6686;51.292;4.166;2023-06-10T14:51:24;6.85;;;6.18;;
13238;SDS011;6686;51.292;4.166;2023-06-10T14:54:29;6.62;;;6.05;;
13238;SDS011;6686;51.292;4.166;2023-06-10T14:57:15;7.20;;;6.50;;
13238;SDS011;6686;51.292;4.166;2023-06-10T15:00:19;7.43;;;6.60;;
13238;SDS011;6686;51.292;4.166;2023-06-10T15:03:08;7.45;;;6.45;;
13238;SDS011;6686;51.292;4.166;2023-06-10T15:05:54;7.28;;;6.57;;
13238;SDS011;6686;51.292;4.166;2023-06-10T15:08:40;8.35;;;6.30;;
13238;SDS011;6686;51.292;4.166;2023-06-10T15:11:26;7.25;;;6.55;;
13238;SDS011;6686;51.292;4.166;2023-06-10T15:14:15;6.90;;;6.30;;
13238;SDS011;6686;51.292;4.166;2023-06-10T15:17:04;8.65;;;6.45;;
13238;SDS011;6686;51.292;4.166;2023-06-10T15:20:02;7.15;;;6.53;;
13238;SDS011;6686;51.292;4.166;2023-06-10T15:23:00;6.85;;;6.20;;
13238;SDS011;6686;51.292;4.166;2023-06-10T15:25:46;6.30;;;5.70;;
13238;SDS011;6686;51.292;4.166;2023-06-10T15:28:32;7.62;;;6.87;;
13238;SDS011;6686;51.292;4.166;2023-06-10T15:31:18;7.20;;;6.50;;
13238;SDS011;6686;51.292;4.166;2023-06-10T15:34:06;11.35;;;8.95;;
13238;SDS011;6686;51.292;4.166;2023-06-10T15:36:52;8.63;;;7.05;;
13238;SDS011;6686;51.292;4.166;2023-06-10T15:39:39;10.10;;;8.55;;
13238;SDS011;6686;51.292;4.166;2023-06-10T15:42:28;6.93;;;5.95;;
13238;SDS011;6686;51.292;4.166;2023-06-10T15:45:11;6.97;;;6.32;;
13238;SDS011;6686;51.292;4.166;2023-06-10T15:47:57;7.03;;;6.15;;
13238;SDS011;6686;51.292;4.166;2023-06-10T15:50:43;11.23;;;6.40;;
13238;SDS011;6686;51.292;4.166;2023-06-10T15:53:30;8.20;;;7.50;;
13238;SDS011;6686;51.292;4.166;2023-06-10T15:56:15;8.68;;;7.82;;
13238;SDS011;6686;51.292;4.166;2023-06-10T15:59:01;10.02;;;7.57;;
13238;SDS011;6686;51.292;4.166;2023-06-10T16:01:47;8.75;;;6.80;;
13238;SDS011;6686;51.292;4.166;2023-06-10T16:04:33;8.52;;;7.65;;
13238;SDS011;6686;51.292;4.166;2023-06-10T16:07:19;7.05;;;6.35;;
13238;SDS011;6686;51.292;4.166;2023-06-10T16:10:05;14.73;;;11.80;;
13238;SDS011;6686;51.292;4.166;2023-06-10T16:12:51;6.97;;;6.35;;
13238;SDS011;6686;51.292;4.166;2023-06-10T16:15:37;8.13;;;7.35;;
13238;SDS011;6686;51.292;4.166;2023-06-10T16:18:23;9.77;;;7.60;;
13238;SDS011;6686;51.292;4.166;2023-06-10T16:21:09;7.68;;;6.97;;
13238;SDS011;6686;51.292;4.166;2023-06-10T16:23:55;8.57;;;6.05;;
13238;SDS011;6686;51.292;4.166;2023-06-10T16:26:41;14.68;;;11.23;;
13238;SDS011;6686;51.292;4.166;2023-06-10T16:29:27;6.07;;;5.55;;
13238;SDS011;6686;51.292;4.166;2023-06-10T16:32:13;9.80;;;8.48;;
13238;SDS011;6686;51.292;4.166;2023-06-10T16:35:00;19.12;;;17.12;;
13238;SDS011;6686;51.292;4.166;2023-06-10T16:37:46;7.37;;;6.78;;
13238;SDS011;6686;51.292;4.166;2023-06-10T16:40:32;6.95;;;6.25;;
13238;SDS011;6686;51.292;4.166;2023-06-10T16:43:18;15.23;;;13.60;;
13238;SDS011;6686;51.292;4.166;2023-06-10T16:46:03;7.20;;;6.53;;
13238;SDS011;6686;51.292;4.166;2023-06-10T16:48:50;10.32;;;7.25;;
13238;SDS011;6686;51.292;4.166;2023-06-10T16:51:36;7.40;;;6.40;;
13238;SDS011;6686;51.292;4.166;2023-06-10T16:54:22;11.70;;;9.55;;
13238;SDS011;6686;51.292;4.166;2023-06-10T16:57:07;9.13;;;7.68;;
13238;SDS011;6686;51.292;4.166;2023-06-10T16:59:53;11.18;;;9.85;;
13238;SDS011;6686;51.292;4.166;2023-06-10T17:02:50;8.00;;;7.20;;
13238;SDS011;6686;51.292;4.166;2023-06-10T17:05:32;8.75;;;7.70;;
13238;SDS011;6686;51.292;4.166;2023-06-10T17:08:19;9.40;;;7.47;;
13238;SDS011;6686;51.292;4.166;2023-06-10T17:11:04;9.30;;;6.90;;